createdAt,value
2023-11-07T00:00:27.000Z,57.7
2023-11-07T00:01:37.000Z,57.8
2023-11-07T00:02:47.000Z,57.8
2023-11-07T00:03:57.000Z,57.8
2023-11-07T00:05:07.000Z,57.8
2023-11-07T00:06:17.000Z,57.8
2023-11-07T00:07:27.000Z,57.8
2023-11-07T00:08:38.000Z,57.8
2023-11-07T00:09:48.125Z,57.7
2023-11-07T00:10:58.000Z,57.8
2023-11-07T00:12:08.000Z,57.8
2023-11-07T00:13:18.000Z,57.8
2023-11-07T00:14:27.000Z,57.8
2023-11-07T00:15:37.000Z,57.8
2023-11-07T00:16:47.000Z,57.8
2023-11-07T00:17:57.000Z,57.7
2023-11-07T00:19:08.000Z,57.7
2023-11-07T00:20:18.000Z,57.8
2023-11-07T00:21:28.000Z,57.8
2023-11-07T00:22:38.000Z,57.8
2023-11-07T00:23:48.000Z,57.8
2023-11-07T00:24:58.000Z,57.8
2023-11-07T00:26:08.000Z,57.8
2023-11-07T00:27:18.000Z,57.8
2023-11-07T00:28:29.000Z,57.8
2023-11-07T00:29:38.000Z,57.8
2023-11-07T00:30:48.242Z,57.8
2023-11-07T00:31:58.000Z,57.8
2023-11-07T00:33:08.000Z,57.8
2023-11-07T00:34:18.000Z,57.8
2023-11-07T00:35:28.000Z,57.8
2023-11-07T00:36:38.000Z,57.8
2023-11-07T00:37:48.000Z,57.8
2023-11-07T00:38:59.000Z,57.8
2023-11-07T00:40:09.000Z,57.8
2023-11-07T00:41:19.000Z,57.8
2023-11-07T00:42:29.000Z,57.8
2023-11-07T00:43:39.000Z,57.8
2023-11-07T00:44:48.000Z,57.8
2023-11-07T00:45:58.000Z,57.8
2023-11-07T00:47:08.000Z,57.7
2023-11-07T00:48:18.000Z,57.8
2023-11-07T00:49:29.000Z,57.8
2023-11-07T00:50:39.000Z,57.8
2023-11-07T00:51:48.000Z,57.8
2023-11-07T00:52:58.000Z,57.8
2023-11-07T00:54:08.000Z,57.8
2023-11-07T00:55:18.000Z,57.8
2023-11-07T00:56:28.000Z,57.8
2023-11-07T00:57:38.000Z,57.8
2023-11-07T00:58:49.000Z,57.8
2023-11-07T00:59:59.000Z,57.8
2023-11-07T01:01:09.000Z,57.8
2023-11-07T01:02:19.000Z,57.8
2023-11-07T01:03:29.000Z,57.8
2023-11-07T01:04:39.000Z,58
2023-11-07T01:05:49.000Z,57.8
2023-11-07T01:06:58.000Z,57.8
2023-11-07T01:08:09.000Z,57.8
2023-11-07T01:09:19.000Z,57.8
2023-11-07T01:10:29.000Z,57.8
2023-11-07T01:11:39.000Z,57.8
2023-11-07T01:12:49.000Z,57.8
2023-11-07T01:13:59.000Z,57.8
2023-11-07T01:15:09.000Z,57.8
2023-11-07T01:16:19.000Z,57.8
2023-11-07T01:17:29.000Z,57.8
2023-11-07T01:18:40.000Z,57.8
2023-11-07T01:19:50.000Z,58
2023-11-07T01:21:00.000Z,57.8
2023-11-07T01:22:09.000Z,57.8
2023-11-07T01:23:19.000Z,57.8
2023-11-07T01:24:29.000Z,57.8
2023-11-07T01:25:39.000Z,57.8
2023-11-07T01:26:49.000Z,58
2023-11-07T01:27:59.000Z,58
2023-11-07T01:29:10.107Z,57.8
2023-11-07T01:30:20.223Z,57.8
2023-11-07T01:31:30.000Z,57.8
2023-11-07T01:32:40.000Z,57.8
2023-11-07T01:33:50.570Z,57.8
2023-11-07T01:35:00.000Z,57.8
2023-11-07T01:36:10.000Z,57.8
2023-11-07T01:37:19.000Z,57.8
2023-11-07T01:38:30.000Z,57.8
2023-11-07T01:39:40.000Z,57.8
2023-11-07T01:40:50.282Z,57.8
2023-11-07T01:42:00.000Z,57.8
2023-11-07T01:43:10.000Z,58
2023-11-07T01:44:20.000Z,57.8
2023-11-07T01:45:30.000Z,57.8
2023-11-07T01:46:40.000Z,58
2023-11-07T01:47:51.000Z,57.8
2023-11-07T01:49:01.000Z,58
2023-11-07T01:50:11.000Z,58
2023-11-07T01:51:21.000Z,58
2023-11-07T01:52:30.000Z,58
2023-11-07T01:53:40.000Z,58
2023-11-07T01:54:50.000Z,57.8
2023-11-07T01:56:00.000Z,58
2023-11-07T01:57:11.068Z,58
2023-11-07T01:58:21.000Z,58
2023-11-07T01:59:31.000Z,58
2023-11-07T02:00:41.000Z,58
2023-11-07T02:01:51.000Z,58
2023-11-07T02:03:01.000Z,58
2023-11-07T02:04:11.000Z,58
2023-11-07T02:05:21.000Z,58
2023-11-07T02:06:31.000Z,58
2023-11-07T02:07:41.000Z,58
2023-11-07T02:08:51.000Z,58
2023-11-07T02:10:01.359Z,58
2023-11-07T02:11:11.000Z,58
2023-11-07T02:12:21.000Z,58
2023-11-07T02:13:31.000Z,58
2023-11-07T02:14:41.000Z,57.8
2023-11-07T02:15:51.000Z,58
2023-11-07T02:17:02.054Z,57.8
2023-11-07T02:18:12.000Z,57.8
2023-11-07T02:19:22.000Z,58
2023-11-07T02:20:32.000Z,58
2023-11-07T02:21:42.000Z,57.8
2023-11-07T02:22:51.650Z,57.8
2023-11-07T02:24:01.000Z,58
2023-11-07T02:25:11.000Z,58
2023-11-07T02:26:22.000Z,58
2023-11-07T02:27:32.000Z,58
2023-11-07T02:28:42.000Z,57.8
2023-11-07T02:29:52.000Z,57.8
2023-11-07T02:31:02.000Z,57.8
2023-11-07T02:32:12.000Z,57.8
2023-11-07T02:33:22.000Z,57.8
2023-11-07T02:34:32.809Z,57.8
2023-11-07T02:35:42.000Z,57.8
2023-11-07T02:36:53.040Z,58
2023-11-07T02:38:02.000Z,58
2023-11-07T02:39:12.000Z,58
2023-11-07T02:40:22.000Z,58
2023-11-07T02:41:32.000Z,57.8
2023-11-07T02:42:42.000Z,57.8
2023-11-07T02:43:52.000Z,57.8
2023-11-07T02:45:02.000Z,57.8
2023-11-07T02:46:12.000Z,57.8
2023-11-07T02:47:23.099Z,57.8
2023-11-07T02:48:33.000Z,57.8
2023-11-07T02:49:43.000Z,57.8
2023-11-07T02:50:53.000Z,58
2023-11-07T02:52:03.000Z,58
2023-11-07T02:53:12.000Z,58
2023-11-07T02:54:22.000Z,58
2023-11-07T02:55:32.000Z,58
2023-11-07T02:56:43.000Z,58
2023-11-07T02:57:53.000Z,57.8
2023-11-07T02:59:03.000Z,58
2023-11-07T03:00:13.388Z,58
2023-11-07T03:01:23.000Z,58
2023-11-07T03:02:33.000Z,58
2023-11-07T03:03:43.000Z,57.8
2023-11-07T03:04:53.000Z,57.8
2023-11-07T03:06:03.000Z,58
2023-11-07T03:07:14.000Z,57.8
2023-11-07T03:08:23.000Z,58
2023-11-07T03:09:33.000Z,58
2023-11-07T03:10:43.447Z,58
2023-11-07T03:11:53.000Z,57.8
2023-11-07T03:13:03.000Z,57.8
2023-11-07T03:14:13.000Z,57.8
2023-11-07T03:15:23.000Z,57.8
2023-11-07T03:16:34.000Z,57.8
2023-11-07T03:17:44.000Z,57.8
2023-11-07T03:18:54.000Z,57.8
2023-11-07T03:20:04.000Z,58
2023-11-07T03:21:14.000Z,58
2023-11-07T03:22:24.000Z,57.8
2023-11-07T03:23:33.000Z,57.8
2023-11-07T03:24:43.000Z,57.8
2023-11-07T03:25:53.000Z,57.8
2023-11-07T03:27:04.000Z,57.8
2023-11-07T03:28:14.000Z,57.8
2023-11-07T03:29:24.000Z,57.8
2023-11-07T03:30:34.000Z,57.8
2023-11-07T03:31:44.000Z,57.8
2023-11-07T03:32:54.000Z,58
2023-11-07T03:34:04.000Z,58
2023-11-07T03:35:14.000Z,57.8
2023-11-07T03:36:25.000Z,58
2023-11-07T03:37:35.000Z,58
2023-11-07T03:38:44.000Z,57.8
2023-11-07T03:39:54.000Z,58
2023-11-07T03:41:04.000Z,58
2023-11-07T03:42:14.000Z,57.8
2023-11-07T03:43:24.726Z,58
2023-11-07T03:44:34.000Z,57.8
2023-11-07T03:45:44.000Z,58
2023-11-07T03:46:55.000Z,58
2023-11-07T03:48:05.000Z,58
2023-11-07T03:49:15.000Z,58
2023-11-07T03:50:25.000Z,58
2023-11-07T03:51:35.000Z,58
2023-11-07T03:52:45.000Z,58
2023-11-07T03:53:54.000Z,58
2023-11-07T03:55:04.000Z,58
2023-11-07T03:56:15.000Z,58
2023-11-07T03:57:25.000Z,58
2023-11-07T03:58:35.000Z,58
2023-11-07T03:59:45.000Z,58
2023-11-07T04:00:55.000Z,58
2023-11-07T04:02:05.000Z,58
2023-11-07T04:03:15.000Z,58
2023-11-07T04:04:25.000Z,58
2023-11-07T04:05:35.000Z,58
2023-11-07T04:06:46.000Z,58
2023-11-07T04:07:56.000Z,58
2023-11-07T04:09:05.000Z,58
2023-11-07T04:10:15.000Z,58
2023-11-07T04:11:25.000Z,58
2023-11-07T04:12:35.000Z,58
2023-11-07T04:13:45.774Z,58
2023-11-07T04:14:55.000Z,58
2023-11-07T04:16:06.000Z,58
2023-11-07T04:17:16.000Z,58
2023-11-07T04:18:26.000Z,58
2023-11-07T04:19:36.000Z,58
2023-11-07T04:20:46.000Z,58
2023-11-07T04:21:56.585Z,58
2023-11-07T04:23:06.000Z,58
2023-11-07T04:24:15.000Z,58
2023-11-07T04:25:25.000Z,58
2023-11-07T04:26:36.000Z,58
2023-11-07T04:27:46.000Z,58
2023-11-07T04:28:56.000Z,58
2023-11-07T04:30:06.000Z,58
2023-11-07T04:31:16.000Z,58
2023-11-07T04:32:26.000Z,58
2023-11-07T04:33:36.000Z,58
2023-11-07T04:34:46.000Z,58
2023-11-07T04:35:56.000Z,58
2023-11-07T04:37:07.107Z,58
2023-11-07T04:38:17.000Z,58
2023-11-07T04:39:26.000Z,58
2023-11-07T04:40:36.000Z,58
2023-11-07T04:41:46.000Z,58
2023-11-07T04:42:56.000Z,58
2023-11-07T04:44:06.819Z,58
2023-11-07T04:45:16.935Z,58
2023-11-07T04:46:26.000Z,58
2023-11-07T04:47:36.000Z,58
2023-11-07T04:48:46.000Z,58
2023-11-07T04:49:56.000Z,58
2023-11-07T04:51:06.000Z,58
2023-11-07T04:52:16.000Z,58
2023-11-07T04:53:26.000Z,58
2023-11-07T04:54:36.000Z,58
2023-11-07T04:55:47.000Z,58
2023-11-07T04:56:57.000Z,58
2023-11-07T04:58:07.000Z,58
2023-11-07T04:59:17.000Z,58
2023-11-07T05:00:27.000Z,58
2023-11-07T05:01:36.000Z,58
2023-11-07T05:02:46.000Z,58
2023-11-07T05:03:56.000Z,58
2023-11-07T05:05:06.000Z,58
2023-11-07T05:06:17.000Z,58
2023-11-07T05:07:27.000Z,58
2023-11-07T05:08:37.000Z,58
2023-11-07T05:09:47.000Z,58
2023-11-07T05:10:57.000Z,58
2023-11-07T05:12:07.000Z,58
2023-11-07T05:13:17.000Z,58
2023-11-07T05:14:27.000Z,58
2023-11-07T05:15:37.000Z,58
2023-11-07T05:16:47.000Z,58
2023-11-07T05:17:57.000Z,58
2023-11-07T05:19:07.000Z,58
2023-11-07T05:20:17.000Z,58
2023-11-07T05:21:27.000Z,58
2023-11-07T05:22:37.000Z,58
2023-11-07T05:23:47.000Z,58
2023-11-07T05:24:57.000Z,58
2023-11-07T05:26:08.000Z,58
2023-11-07T05:27:18.000Z,58
2023-11-07T05:28:28.000Z,58
2023-11-07T05:29:38.000Z,58
2023-11-07T05:30:48.000Z,58
2023-11-07T05:31:57.644Z,58
2023-11-07T05:33:07.000Z,58
2023-11-07T05:34:17.000Z,58
2023-11-07T05:35:27.000Z,58
2023-11-07T05:36:38.000Z,58
2023-11-07T05:37:48.000Z,58
2023-11-07T05:38:58.000Z,58
2023-11-07T05:40:08.000Z,58
2023-11-07T05:41:18.000Z,58
2023-11-07T05:42:28.000Z,58
2023-11-07T05:43:38.000Z,58
2023-11-07T05:44:48.000Z,58
2023-11-07T05:45:59.000Z,58
2023-11-07T05:47:08.000Z,57.8
2023-11-07T05:48:18.000Z,57.8
2023-11-07T05:49:28.000Z,58
2023-11-07T05:50:38.000Z,58
2023-11-07T05:51:48.000Z,58
2023-11-07T05:52:58.750Z,58
2023-11-07T05:54:08.000Z,58
2023-11-07T05:55:18.000Z,58
2023-11-07T05:56:29.000Z,58
2023-11-07T05:57:39.000Z,58
2023-11-07T05:58:49.000Z,58
2023-11-07T05:59:59.446Z,58
2023-11-07T06:01:09.000Z,58
2023-11-07T06:02:18.000Z,57.8
2023-11-07T06:03:28.000Z,58
2023-11-07T06:04:38.000Z,58
2023-11-07T06:05:49.000Z,58
2023-11-07T06:06:59.000Z,58
2023-11-07T06:08:09.274Z,58
2023-11-07T06:09:19.390Z,58
2023-11-07T06:10:29.000Z,58
2023-11-07T06:11:39.000Z,58
2023-11-07T06:12:49.000Z,58
2023-11-07T06:13:59.000Z,58
2023-11-07T06:15:09.000Z,58
2023-11-07T06:16:20.087Z,58
2023-11-07T06:17:29.000Z,58
2023-11-07T06:18:39.000Z,57.8
2023-11-07T06:19:49.000Z,57.6
2023-11-07T06:20:59.000Z,57.8
2023-11-07T06:22:09.000Z,57.8
2023-11-07T06:23:19.000Z,57.8
2023-11-07T06:24:29.000Z,57.6
2023-11-07T06:25:40.000Z,57.6
2023-11-07T06:26:50.000Z,57.5
2023-11-07T06:28:00.000Z,57.5
2023-11-07T06:29:10.000Z,57.5
2023-11-07T06:30:20.000Z,57.5
2023-11-07T06:31:30.000Z,57.5
2023-11-07T06:32:39.000Z,57.5
2023-11-07T06:33:49.000Z,57.5
2023-11-07T06:34:59.000Z,57.5
2023-11-07T06:36:10.000Z,57.5
2023-11-07T06:37:20.000Z,57.6
2023-11-07T06:38:30.000Z,57.6
2023-11-07T06:39:40.000Z,57.5
2023-11-07T06:40:50.000Z,57.5
2023-11-07T06:42:00.000Z,57.5
2023-11-07T06:43:10.000Z,57.6
2023-11-07T06:44:20.000Z,57.6
2023-11-07T06:45:31.000Z,57.5
2023-11-07T06:46:41.000Z,57.6
2023-11-07T06:47:50.000Z,57.6
2023-11-07T06:49:00.000Z,57.5
2023-11-07T06:50:10.000Z,57.5
2023-11-07T06:51:20.000Z,57.6
2023-11-07T06:52:30.000Z,57.6
2023-11-07T06:53:40.000Z,57.6
2023-11-07T06:54:50.000Z,57.6
2023-11-07T06:56:01.000Z,57.6
2023-11-07T06:57:11.000Z,57.5
2023-11-07T06:58:21.314Z,57.6
2023-11-07T06:59:31.000Z,57.6
2023-11-07T07:00:41.000Z,57.6
2023-11-07T07:01:51.000Z,57.6
2023-11-07T07:03:00.000Z,57.6
2023-11-07T07:04:10.000Z,57.5
2023-11-07T07:05:21.000Z,57.6
2023-11-07T07:06:31.000Z,57.6
2023-11-07T07:07:41.000Z,57.5
2023-11-07T07:08:51.000Z,57.6
2023-11-07T07:10:01.000Z,57.5
2023-11-07T07:11:11.000Z,57.5
2023-11-07T07:12:21.000Z,57.5
2023-11-07T07:13:31.000Z,57.5
2023-11-07T07:14:41.000Z,57.4
2023-11-07T07:15:52.000Z,57.5
2023-11-07T07:17:02.000Z,57.5
2023-11-07T07:18:11.000Z,57.4
2023-11-07T07:19:21.000Z,57.4
2023-11-07T07:20:31.000Z,57.4
2023-11-07T07:21:41.000Z,57.3
2023-11-07T07:22:51.000Z,57.4
2023-11-07T07:24:01.000Z,57.4
2023-11-07T07:25:12.000Z,57.3
2023-11-07T07:26:22.000Z,57.4
2023-11-07T07:27:32.000Z,57.3
2023-11-07T07:28:42.000Z,57.3
2023-11-07T07:29:52.000Z,57.4
2023-11-07T07:31:02.000Z,57.4
2023-11-07T07:32:12.000Z,57.4
2023-11-07T07:33:21.000Z,57.3
2023-11-07T07:34:31.000Z,57.3
2023-11-07T07:35:42.000Z,57.4
2023-11-07T07:36:52.000Z,57.2
2023-11-07T07:38:02.000Z,57.1
2023-11-07T07:39:12.000Z,57.3
2023-11-07T07:40:22.000Z,57.6
2023-11-07T07:41:32.000Z,57.8
2023-11-07T07:42:42.000Z,57.8
2023-11-07T07:43:52.000Z,57.8
2023-11-07T07:45:03.000Z,57.8
2023-11-07T07:46:13.000Z,57.9
2023-11-07T07:47:23.000Z,57.9
2023-11-07T07:48:32.000Z,57.9
2023-11-07T07:49:42.000Z,58
2023-11-07T07:50:52.000Z,58
2023-11-07T07:52:02.000Z,58
2023-11-07T07:53:12.000Z,58
2023-11-07T07:54:22.949Z,58.1
2023-11-07T07:55:33.000Z,58
2023-11-07T07:56:43.000Z,58
2023-11-07T07:57:53.296Z,58
2023-11-07T07:59:03.000Z,58
2023-11-07T08:00:13.000Z,57.9
2023-11-07T08:01:23.000Z,57.9
2023-11-07T08:02:33.000Z,57.8
2023-11-07T08:03:42.000Z,57.8
2023-11-07T08:04:53.000Z,57.8
2023-11-07T08:06:03.000Z,57.8
2023-11-07T08:07:13.000Z,57.8
2023-11-07T08:08:23.000Z,57.8
2023-11-07T08:09:33.000Z,57.8
2023-11-07T08:10:43.000Z,57.8
2023-11-07T08:11:53.000Z,57.8
2023-11-07T08:13:03.000Z,57.8
2023-11-07T08:14:13.000Z,57.8
2023-11-07T08:15:24.000Z,57.7
2023-11-07T08:16:34.000Z,57.8
2023-11-07T08:17:44.000Z,57.8
2023-11-07T08:18:53.000Z,57.7
2023-11-07T08:20:03.000Z,57.8
2023-11-07T08:21:13.000Z,57.7
2023-11-07T08:22:23.000Z,57.7
2023-11-07T08:23:33.000Z,57.7
2023-11-07T08:24:43.000Z,57.7
2023-11-07T08:25:54.000Z,57.7
2023-11-07T08:27:04.000Z,57.7
2023-11-07T08:28:14.000Z,57.8
2023-11-07T08:29:24.000Z,57.8
2023-11-07T08:30:34.000Z,57.7
2023-11-07T08:31:44.000Z,57.8
2023-11-07T08:32:54.000Z,57.8
2023-11-07T08:34:03.000Z,57.7
2023-11-07T08:35:14.000Z,57.7
2023-11-07T08:36:24.176Z,57.7
2023-11-07T08:37:34.000Z,57.8
2023-11-07T08:38:44.000Z,57.8
2023-11-07T08:39:54.000Z,57.7
2023-11-07T08:41:03.000Z,57.8
2023-11-07T08:42:13.000Z,57.7
2023-11-07T08:43:23.000Z,57.8
2023-11-07T08:44:34.000Z,57.7
2023-11-07T08:45:44.000Z,57.6
2023-11-07T08:46:54.000Z,57.7
2023-11-07T08:48:04.000Z,57.6
2023-11-07T08:49:14.000Z,57.6
2023-11-07T08:50:24.000Z,57.6
2023-11-07T08:51:34.000Z,57.5
2023-11-07T08:52:44.000Z,57.5
2023-11-07T08:53:54.000Z,57.5
2023-11-07T08:55:05.000Z,57.5
2023-11-07T08:56:14.000Z,57.5
2023-11-07T08:57:24.000Z,57.5
2023-11-07T08:58:34.000Z,57.4
2023-11-07T08:59:44.000Z,57.4
2023-11-07T09:00:54.000Z,57.4
2023-11-07T09:02:04.000Z,57.4
2023-11-07T09:03:14.000Z,57.3
2023-11-07T09:04:24.000Z,57.3
2023-11-07T09:05:35.000Z,57.3
2023-11-07T09:06:45.000Z,57.2
2023-11-07T09:07:55.000Z,57.2
2023-11-07T09:09:05.000Z,57.2
2023-11-07T09:10:15.000Z,57.2
2023-11-07T09:11:24.000Z,57.2
2023-11-07T09:12:34.000Z,57.2
2023-11-07T09:13:44.000Z,57.2
2023-11-07T09:14:55.000Z,57.2
2023-11-07T09:16:05.000Z,57.1
2023-11-07T09:17:15.000Z,57.2
2023-11-07T09:18:25.000Z,57.2
2023-11-07T09:19:35.523Z,57.2
2023-11-07T09:20:45.000Z,57.2
2023-11-07T09:21:55.000Z,57.2
2023-11-07T09:23:05.000Z,57.2
2023-11-07T09:24:15.000Z,57.1
2023-11-07T09:25:26.000Z,57.2
2023-11-07T09:26:35.000Z,57.2
2023-11-07T09:27:45.000Z,57.2
2023-11-07T09:28:55.000Z,57.2
2023-11-07T09:30:05.582Z,57.2
2023-11-07T09:31:15.000Z,57.2
2023-11-07T09:32:25.000Z,57.2
2023-11-07T09:33:35.000Z,57.1
2023-11-07T09:34:46.000Z,57.2
2023-11-07T09:35:56.000Z,57.2
2023-11-07T09:37:06.000Z,57.2
2023-11-07T09:38:16.000Z,57.2
2023-11-07T09:39:26.000Z,57.2
2023-11-07T09:40:36.000Z,57.2
2023-11-07T09:41:45.000Z,57.2
2023-11-07T09:42:55.000Z,57.3
2023-11-07T09:44:05.000Z,57.3
2023-11-07T09:45:16.000Z,57.3
2023-11-07T09:46:26.000Z,57.2
2023-11-07T09:47:36.000Z,57.3
2023-11-07T09:48:46.000Z,57.1
2023-11-07T09:49:56.000Z,57.2
2023-11-07T09:51:06.000Z,57.2
2023-11-07T09:52:16.000Z,57.2
2023-11-07T09:53:26.000Z,57.2
2023-11-07T09:54:37.000Z,57.2
2023-11-07T09:55:47.000Z,57.2
2023-11-07T09:56:56.000Z,57.2
2023-11-07T09:58:06.000Z,57.2
2023-11-07T09:59:16.000Z,57.1
2023-11-07T10:00:26.000Z,57.1
2023-11-07T10:01:36.742Z,57.1
2023-11-07T10:02:46.000Z,57.1
2023-11-07T10:03:56.000Z,57.2
2023-11-07T10:05:07.000Z,57.1
2023-11-07T10:06:17.000Z,57.2
2023-11-07T10:07:27.000Z,57.2
2023-11-07T10:08:37.000Z,57.1
2023-11-07T10:09:47.000Z,57.1
2023-11-07T10:10:57.000Z,57
2023-11-07T10:12:06.000Z,57.1
2023-11-07T10:13:16.000Z,57.1
2023-11-07T10:14:27.000Z,57.1
2023-11-07T10:15:37.000Z,57.1
2023-11-07T10:16:47.000Z,57
2023-11-07T10:17:57.000Z,57
2023-11-07T10:19:07.000Z,57
2023-11-07T10:20:17.000Z,57
2023-11-07T10:21:27.000Z,56.9
2023-11-07T10:22:37.000Z,57
2023-11-07T10:23:47.000Z,56.9
2023-11-07T10:24:58.000Z,56.9
2023-11-07T10:26:08.000Z,56.9
2023-11-07T10:27:17.000Z,56.9
2023-11-07T10:28:27.000Z,56.9
2023-11-07T10:29:37.000Z,57
2023-11-07T10:30:47.000Z,57
2023-11-07T10:31:57.000Z,56.9
2023-11-07T10:33:07.900Z,57
2023-11-07T10:34:18.000Z,56.9
2023-11-07T10:35:28.000Z,56.9
2023-11-07T10:36:38.000Z,57
2023-11-07T10:37:48.000Z,57
2023-11-07T10:38:58.000Z,57
2023-11-07T10:40:08.000Z,56.9
2023-11-07T10:41:18.000Z,56.9
2023-11-07T10:42:27.000Z,56.9
2023-11-07T10:43:37.000Z,56.9
2023-11-07T10:44:48.000Z,56.9
2023-11-07T10:45:58.000Z,57
2023-11-07T10:47:08.000Z,57
2023-11-07T10:48:18.000Z,57
2023-11-07T10:49:28.000Z,57
2023-11-07T10:50:38.000Z,57
2023-11-07T10:51:48.000Z,57.1
2023-11-07T10:52:58.000Z,57
2023-11-07T10:54:09.000Z,57
2023-11-07T10:55:19.000Z,57
2023-11-07T10:56:29.000Z,56.9
2023-11-07T10:57:38.000Z,57
2023-11-07T10:58:48.000Z,57
2023-11-07T10:59:58.000Z,57
2023-11-07T11:01:08.000Z,57.2
2023-11-07T11:02:18.000Z,56.9
2023-11-07T11:03:28.000Z,56.9
2023-11-07T11:04:39.000Z,57
2023-11-07T11:05:49.000Z,57
2023-11-07T11:06:59.000Z,57.1
2023-11-07T11:08:09.000Z,57.1
2023-11-07T11:09:19.000Z,57.1
2023-11-07T11:10:29.000Z,57.1
2023-11-07T11:11:39.000Z,57
2023-11-07T11:12:48.000Z,57.1
2023-11-07T11:13:59.000Z,57
2023-11-07T11:15:09.000Z,57
2023-11-07T11:16:19.000Z,57
2023-11-07T11:17:29.000Z,57
2023-11-07T11:18:39.000Z,56.9
2023-11-07T11:19:49.000Z,56.9
2023-11-07T11:20:59.000Z,56.7
2023-11-07T11:22:09.000Z,56.7
2023-11-07T11:23:19.000Z,56.7
2023-11-07T11:24:30.000Z,56.6
2023-11-07T11:25:40.000Z,56.5
2023-11-07T11:26:50.000Z,56.4
2023-11-07T11:27:59.000Z,56.3
2023-11-07T11:29:09.000Z,56.2
2023-11-07T11:30:19.639Z,55.9
2023-11-07T11:31:29.000Z,56
2023-11-07T11:32:39.000Z,55.6
2023-11-07T11:33:49.000Z,55.5
2023-11-07T11:35:00.000Z,55.5
2023-11-07T11:36:10.000Z,55.4
2023-11-07T11:37:20.000Z,55.4
2023-11-07T11:38:30.000Z,55.5
2023-11-07T11:39:40.000Z,55.5
2023-11-07T11:40:50.000Z,55.3
2023-11-07T11:42:00.000Z,55.4
2023-11-07T11:43:09.000Z,55.3
2023-11-07T11:44:20.000Z,55.5
2023-11-07T11:45:30.000Z,55.5
2023-11-07T11:46:40.276Z,55.5
2023-11-07T11:47:50.000Z,55.5
2023-11-07T11:49:00.000Z,55.5
2023-11-07T11:50:10.000Z,55.5
2023-11-07T11:51:20.000Z,55.5
2023-11-07T11:52:30.000Z,55.5
2023-11-07T11:53:40.000Z,55.6
2023-11-07T11:54:51.000Z,55.5
2023-11-07T11:56:01.000Z,55.5
2023-11-07T11:57:11.000Z,55.7
2023-11-07T11:58:20.000Z,55.7
2023-11-07T11:59:30.000Z,55.6
2023-11-07T12:00:40.000Z,55.6
2023-11-07T12:01:50.000Z,55.7
2023-11-07T12:03:00.000Z,55.8
2023-11-07T12:04:11.000Z,55.7
2023-11-07T12:05:21.000Z,55.7
2023-11-07T12:06:31.000Z,55.7
2023-11-07T12:07:41.000Z,55.5
2023-11-07T12:08:51.000Z,55.5
2023-11-07T12:10:01.000Z,55.6
2023-11-07T12:11:11.000Z,55.8
2023-11-07T12:12:21.000Z,55.8
2023-11-07T12:13:30.000Z,55.7
2023-11-07T12:14:41.000Z,55.8
2023-11-07T12:15:51.000Z,55.8
2023-11-07T12:17:01.319Z,55.8
2023-11-07T12:18:11.000Z,55.7
2023-11-07T12:19:21.000Z,55.7
2023-11-07T12:20:31.000Z,55.8
2023-11-07T12:21:41.000Z,55.9
2023-11-07T12:22:51.000Z,55.8
2023-11-07T12:24:02.000Z,55.8
2023-11-07T12:25:12.000Z,55.8
2023-11-07T12:26:22.000Z,55.8
2023-11-07T12:27:32.000Z,55.7
2023-11-07T12:28:41.000Z,55.7
2023-11-07T12:29:51.000Z,55.8
2023-11-07T12:31:01.000Z,55.7
2023-11-07T12:32:11.000Z,55.8
2023-11-07T12:33:21.000Z,55.7
2023-11-07T12:34:32.000Z,55.7
2023-11-07T12:35:41.000Z,55.8
2023-11-07T12:36:51.000Z,55.5
2023-11-07T12:38:01.000Z,55.6
2023-11-07T12:39:11.000Z,55.7
2023-11-07T12:40:21.000Z,55.7
2023-11-07T12:41:31.000Z,55.6
2023-11-07T12:42:41.000Z,55.7
2023-11-07T12:43:52.000Z,55.6
2023-11-07T12:45:02.000Z,55.6
2023-11-07T12:46:12.000Z,55.6
2023-11-07T12:47:22.000Z,55.6
2023-11-07T12:48:32.000Z,55.7
2023-11-07T12:49:42.000Z,55.5
2023-11-07T12:50:51.000Z,55.5
2023-11-07T12:52:01.000Z,55.6
2023-11-07T12:53:11.000Z,55.6
2023-11-07T12:54:22.000Z,55.6
2023-11-07T12:55:32.000Z,55.6
2023-11-07T12:56:42.000Z,55.5
2023-11-07T12:57:52.000Z,55.5
2023-11-07T12:59:02.000Z,55.6
2023-11-07T13:00:12.000Z,55.5
2023-11-07T13:01:22.000Z,55.6
2023-11-07T13:02:32.000Z,55.6
2023-11-07T13:03:43.003Z,55.5
2023-11-07T13:04:53.000Z,55.6
2023-11-07T13:06:02.000Z,55.5
2023-11-07T13:07:12.000Z,55.6
2023-11-07T13:08:22.000Z,55.6
2023-11-07T13:09:32.000Z,55.5
2023-11-07T13:10:42.713Z,55.6
2023-11-07T13:11:52.000Z,55.5
2023-11-07T13:13:02.000Z,55.5
2023-11-07T13:14:13.000Z,55.5
2023-11-07T13:15:23.000Z,55.5
2023-11-07T13:16:33.000Z,55.4
2023-11-07T13:17:43.000Z,55.4
2023-11-07T13:18:53.000Z,55.4
2023-11-07T13:20:03.000Z,55.4
2023-11-07T13:21:12.000Z,55.4
2023-11-07T13:22:22.000Z,55.4
2023-11-07T13:23:33.000Z,55.5
2023-11-07T13:24:43.000Z,55.5
2023-11-07T13:25:53.000Z,55.4
2023-11-07T13:27:03.000Z,55.5
2023-11-07T13:28:13.000Z,55.4
2023-11-07T13:29:23.000Z,55.4
2023-11-07T13:30:33.000Z,55.3
2023-11-07T13:31:43.000Z,55.4
2023-11-07T13:32:53.000Z,55.4
2023-11-07T13:34:04.000Z,55.5
2023-11-07T13:35:14.000Z,55.4
2023-11-07T13:36:23.000Z,55.3
2023-11-07T13:37:33.000Z,55.4
2023-11-07T13:38:43.000Z,55.3
2023-11-07T13:39:53.000Z,55.4
2023-11-07T13:41:03.000Z,55.3
2023-11-07T13:42:13.000Z,55.3
2023-11-07T13:43:23.000Z,55.4
2023-11-07T13:44:34.000Z,55.4
2023-11-07T13:45:44.000Z,55.2
2023-11-07T13:46:54.000Z,55.2
2023-11-07T13:48:04.000Z,55.3
2023-11-07T13:49:14.000Z,55.2
2023-11-07T13:50:24.000Z,55.3
2023-11-07T13:51:33.000Z,55.3
2023-11-07T13:52:43.000Z,55.2
2023-11-07T13:53:54.000Z,55.3
2023-11-07T13:55:04.000Z,55.2
2023-11-07T13:56:14.000Z,55.2
2023-11-07T13:57:24.000Z,55.2
2023-11-07T13:58:34.000Z,55.2
2023-11-07T13:59:44.000Z,55.2
2023-11-07T14:00:54.000Z,55.2
2023-11-07T14:02:04.000Z,55.1
2023-11-07T14:03:14.000Z,55.2
2023-11-07T14:04:25.000Z,55.2
2023-11-07T14:05:35.000Z,55.2
2023-11-07T14:06:44.000Z,55.2
2023-11-07T14:07:54.000Z,55.2
2023-11-07T14:10:14.000Z,55.1
2023-11-07T14:11:24.000Z,55.2
2023-11-07T14:12:34.000Z,55.2
2023-11-07T14:13:45.000Z,55.1
2023-11-07T14:14:55.000Z,55.2
2023-11-07T14:16:05.000Z,55
2023-11-07T14:17:15.000Z,55.1
2023-11-07T14:18:25.000Z,55.1
2023-11-07T14:19:35.000Z,55.1
2023-11-07T14:20:45.000Z,55.1
2023-11-07T14:21:54.000Z,55
2023-11-07T14:23:04.000Z,55.1
2023-11-07T14:24:15.000Z,55.1
2023-11-07T14:25:25.000Z,55.1
2023-11-07T14:26:35.000Z,55.1
2023-11-07T14:27:45.437Z,55
2023-11-07T14:28:55.000Z,55
2023-11-07T14:30:05.000Z,55.1
2023-11-07T14:31:15.000Z,55
2023-11-07T14:32:25.000Z,55.1
2023-11-07T14:33:36.000Z,55.1
2023-11-07T14:34:46.000Z,55
2023-11-07T14:35:56.000Z,55.1
2023-11-07T14:37:05.379Z,55
2023-11-07T14:38:15.000Z,55.1
2023-11-07T14:39:25.000Z,55
2023-11-07T14:40:35.000Z,54.9
2023-11-07T14:41:45.000Z,54.9
2023-11-07T14:42:55.000Z,55
2023-11-07T14:44:06.000Z,55.1
2023-11-07T14:45:16.000Z,55
2023-11-07T14:46:26.000Z,54.9
2023-11-07T14:47:36.000Z,55
2023-11-07T14:48:46.000Z,54.9
2023-11-07T14:49:56.000Z,54.9
2023-11-07T14:51:06.000Z,55
2023-11-07T14:52:15.000Z,54.9
2023-11-07T14:53:26.000Z,54.9
2023-11-07T14:54:36.000Z,54.9
2023-11-07T14:55:46.000Z,54.9
2023-11-07T14:58:06.000Z,54.9
2023-11-07T14:59:16.000Z,54.9
2023-11-07T15:00:26.000Z,54.9
2023-11-07T15:01:36.000Z,54.9
2023-11-07T15:02:46.000Z,54.9
2023-11-07T15:03:57.000Z,54.9
2023-11-07T15:05:07.000Z,54.8
2023-11-07T15:06:17.000Z,54.9
2023-11-07T15:07:26.000Z,54.9
2023-11-07T15:08:36.000Z,54.8
2023-11-07T15:09:46.000Z,54.8
2023-11-07T15:10:56.000Z,54.8
2023-11-07T15:12:06.891Z,54.9
2023-11-07T15:13:17.000Z,54.9
2023-11-07T15:14:27.000Z,54.9
2023-11-07T15:15:37.000Z,54.9
2023-11-07T15:16:47.000Z,54.9
2023-11-07T15:17:57.000Z,54.9
2023-11-07T15:19:07.000Z,55
2023-11-07T15:20:17.000Z,54.8
2023-11-07T15:21:27.000Z,54.8
2023-11-07T15:22:36.000Z,54.8
2023-11-07T15:23:47.066Z,54.8
2023-11-07T15:24:57.000Z,54.8
2023-11-07T15:26:07.000Z,54.9
2023-11-07T15:27:17.000Z,54.8
2023-11-07T15:28:27.000Z,54.8
2023-11-07T15:29:37.000Z,54.7
2023-11-07T15:30:47.000Z,54.8
2023-11-07T15:31:57.000Z,54.8
2023-11-07T15:33:07.000Z,54.9
2023-11-07T15:34:18.000Z,54.7
2023-11-07T15:35:28.000Z,54.7
2023-11-07T15:36:38.000Z,54.7
2023-11-07T15:37:47.000Z,54.7
2023-11-07T15:38:57.000Z,54.6
2023-11-07T15:40:07.000Z,54.7
2023-11-07T15:41:17.000Z,54.7
2023-11-07T15:42:27.000Z,54.7
2023-11-07T15:43:38.000Z,54.8
2023-11-07T15:44:48.000Z,54.8
2023-11-07T15:45:58.000Z,54.7
2023-11-07T15:47:08.000Z,54.6
2023-11-07T15:48:18.000Z,54.6
2023-11-07T15:49:28.000Z,54.6
2023-11-07T15:50:38.000Z,54.7
2023-11-07T15:51:48.000Z,54.7
2023-11-07T15:52:58.000Z,54.6